sensor_id;sensor_type;location;lat;lon;timestamp;P1;P2;P0
49462;PMS5003;35357;51.722;0.500;2022-09-09T00:00:23;4;4;
49462;PMS5003;35357;51.722;0.500;2022-09-09T00:02:54;5;4;
49462;PMS5003;35357;51.722;0.500;2022-09-09T00:05:30;4;3;
49462;PMS5003;35357;51.722;0.500;2022-09-09T00:08:03;6;5;
49462;PMS5003;35357;51.722;0.500;2022-09-09T00:10:32;5;4;
49462;PMS5003;35357;51.722;0.500;2022-09-09T00:13:06;3;3;
49462;PMS5003;35357;51.722;0.500;2022-09-09T00:15:46;5;5;
49462;PMS5003;35357;51.722;0.500;2022-09-09T00:18:22;5;4;
49462;PMS5003;35357;51.722;0.500;2022-09-09T00:20:55;12;9;
49462;PMS5003;35357;51.722;0.500;2022-09-09T00:23:28;3;3;
49462;PMS5003;35357;51.722;0.500;2022-09-09T00:25:59;5;5;
49462;PMS5003;35357;51.722;0.500;2022-09-09T00:28:35;5;4;
49462;PMS5003;35357;51.722;0.500;2022-09-09T00:31:09;7;5;
49462;PMS5003;35357;51.722;0.500;2022-09-09T00:33:40;5;4;
49462;PMS5003;35357;51.722;0.500;2022-09-09T00:36:12;6;6;
49462;PMS5003;35357;51.722;0.500;2022-09-09T00:38:41;6;5;
49462;PMS5003;35357;51.722;0.500;2022-09-09T00:41:12;4;4;
49462;PMS5003;35357;51.722;0.500;2022-09-09T00:43:49;7;7;
49462;PMS5003;35357;51.722;0.500;2022-09-09T00:46:26;5;4;
49462;PMS5003;35357;51.722;0.500;2022-09-09T00:49:09;8;8;
49462;PMS5003;35357;51.722;0.500;2022-09-09T00:51:51;6;6;
49462;PMS5003;35357;51.722;0.500;2022-09-09T00:54:33;5;5;
49462;PMS5003;35357;51.722;0.500;2022-09-09T00:57:13;4;4;
49462;PMS5003;35357;51.722;0.500;2022-09-09T00:59:52;7;6;
49462;PMS5003;35357;51.722;0.500;2022-09-09T01:02:26;4;4;
49462;PMS5003;35357;51.722;0.500;2022-09-09T01:04:56;4;4;
49462;PMS5003;35357;51.722;0.500;2022-09-09T01:07:29;6;6;
49462;PMS5003;35357;51.722;0.500;2022-09-09T01:09:56;5;5;
49462;PMS5003;35357;51.722;0.500;2022-09-09T01:12:27;5;5;
49462;PMS5003;35357;51.722;0.500;2022-09-09T01:15:03;7;7;
49462;PMS5003;35357;51.722;0.500;2022-09-09T01:17:48;5;5;
49462;PMS5003;35357;51.722;0.500;2022-09-09T01:20:21;5;5;
49462;PMS5003;35357;51.722;0.500;2022-09-09T01:22:56;6;6;
49462;PMS5003;35357;51.722;0.500;2022-09-09T01:26:18;5;5;
49462;PMS5003;35357;51.722;0.500;2022-09-09T01:28:51;7;6;
49462;PMS5003;35357;51.722;0.500;2022-09-09T01:31:20;6;5;
49462;PMS5003;35357;51.722;0.500;2022-09-09T01:33:49;6;5;
49462;PMS5003;35357;51.722;0.500;2022-09-09T01:36:19;6;6;
49462;PMS5003;35357;51.722;0.500;2022-09-09T01:38:53;7;7;
49462;PMS5003;35357;51.722;0.500;2022-09-09T01:41:20;6;6;
49462;PMS5003;35357;51.722;0.500;2022-09-09T01:43:47;15;10;
49462;PMS5003;35357;51.722;0.500;2022-09-09T01:46:16;7;7;
49462;PMS5003;35357;51.722;0.500;2022-09-09T01:48:44;6;6;
49462;PMS5003;35357;51.722;0.500;2022-09-09T01:51:12;7;7;
49462;PMS5003;35357;51.722;0.500;2022-09-09T01:53:39;7;7;
49462;PMS5003;35357;51.722;0.500;2022-09-09T01:56:11;7;7;
49462;PMS5003;35357;51.722;0.500;2022-09-09T01:58:51;8;8;
49462;PMS5003;35357;51.722;0.500;2022-09-09T02:01:34;7;7;
49462;PMS5003;35357;51.722;0.500;2022-09-09T02:04:15;7;5;
49462;PMS5003;35357;51.722;0.500;2022-09-09T02:06:51;7;7;
49462;PMS5003;35357;51.722;0.500;2022-09-09T02:09:22;8;8;
49462;PMS5003;35357;51.722;0.500;2022-09-09T02:11:51;6;6;
49462;PMS5003;35357;51.722;0.500;2022-09-09T02:14:27;8;8;
49462;PMS5003;35357;51.722;0.500;2022-09-09T02:17:00;7;6;
49462;PMS5003;35357;51.722;0.500;2022-09-09T02:19:33;6;6;
49462;PMS5003;35357;51.722;0.500;2022-09-09T02:22:03;8;7;
49462;PMS5003;35357;51.722;0.500;2022-09-09T02:24:34;8;8;
49462;PMS5003;35357;51.722;0.500;2022-09-09T02:27:03;7;7;
49462;PMS5003;35357;51.722;0.500;2022-09-09T02:29:35;6;6;
49462;PMS5003;35357;51.722;0.500;2022-09-09T02:32:06;7;7;
49462;PMS5003;35357;51.722;0.500;2022-09-09T02:34:40;7;7;
49462;PMS5003;35357;51.722;0.500;2022-09-09T02:37:11;9;9;
49462;PMS5003;35357;51.722;0.500;2022-09-09T02:39:41;15;12;
49462;PMS5003;35357;51.722;0.500;2022-09-09T02:42:07;10;9;
49462;PMS5003;35357;51.722;0.500;2022-09-09T02:44:34;11;8;
49462;PMS5003;35357;51.722;0.500;2022-09-09T02:47:21;6;6;
49462;PMS5003;35357;51.722;0.500;2022-09-09T02:49:59;8;8;
49462;PMS5003;35357;51.722;0.500;2022-09-09T02:52:36;9;8;
49462;PMS5003;35357;51.722;0.500;2022-09-09T02:55:14;10;8;
49462;PMS5003;35357;51.722;0.500;2022-09-09T02:57:46;10;10;
49462;PMS5003;35357;51.722;0.500;2022-09-09T03:00:15;7;7;
49462;PMS5003;35357;51.722;0.500;2022-09-09T03:02:48;7;7;
49462;PMS5003;35357;51.722;0.500;2022-09-09T03:05:15;6;6;
49462;PMS5003;35357;51.722;0.500;2022-09-09T03:07:42;8;8;
49462;PMS5003;35357;51.722;0.500;2022-09-09T03:10:10;14;11;
49462;PMS5003;35357;51.722;0.500;2022-09-09T03:12:37;8;7;
49462;PMS5003;35357;51.722;0.500;2022-09-09T03:15:04;8;8;
49462;PMS5003;35357;51.722;0.500;2022-09-09T03:17:32;8;8;
49462;PMS5003;35357;51.722;0.500;2022-09-09T03:20:00;7;6;
49462;PMS5003;35357;51.722;0.500;2022-09-09T03:22:28;11;10;
49462;PMS5003;35357;51.722;0.500;2022-09-09T03:24:55;8;7;
49462;PMS5003;35357;51.722;0.500;2022-09-09T03:27:22;6;5;
49462;PMS5003;35357;51.722;0.500;2022-09-09T03:29:49;7;6;
49462;PMS5003;35357;51.722;0.500;2022-09-09T03:32:16;8;7;
49462;PMS5003;35357;51.722;0.500;2022-09-09T03:34:44;10;9;
49462;PMS5003;35357;51.722;0.500;2022-09-09T03:37:11;9;9;
49462;PMS5003;35357;51.722;0.500;2022-09-09T03:39:39;9;8;
49462;PMS5003;35357;51.722;0.500;2022-09-09T03:42:06;7;7;
49462;PMS5003;35357;51.722;0.500;2022-09-09T03:44:34;10;9;
49462;PMS5003;35357;51.722;0.500;2022-09-09T03:47:00;9;8;
49462;PMS5003;35357;51.722;0.500;2022-09-09T03:49:28;9;9;
49462;PMS5003;35357;51.722;0.500;2022-09-09T03:51:55;9;9;
49462;PMS5003;35357;51.722;0.500;2022-09-09T03:54:23;10;9;
49462;PMS5003;35357;51.722;0.500;2022-09-09T03:56:50;9;8;
49462;PMS5003;35357;51.722;0.500;2022-09-09T03:59:17;10;9;
49462;PMS5003;35357;51.722;0.500;2022-09-09T04:01:44;9;9;
49462;PMS5003;35357;51.722;0.500;2022-09-09T04:04:11;10;9;
49462;PMS5003;35357;51.722;0.500;2022-09-09T04:06:38;10;10;
49462;PMS5003;35357;51.722;0.500;2022-09-09T04:09:05;10;9;
49462;PMS5003;35357;51.722;0.500;2022-09-09T04:11:32;10;10;
49462;PMS5003;35357;51.722;0.500;2022-09-09T04:13:59;13;12;
49462;PMS5003;35357;51.722;0.500;2022-09-09T04:16:26;11;10;
49462;PMS5003;35357;51.722;0.500;2022-09-09T04:18:54;12;12;
49462;PMS5003;35357;51.722;0.500;2022-09-09T04:21:21;11;10;
49462;PMS5003;35357;51.722;0.500;2022-09-09T04:23:48;11;10;
49462;PMS5003;35357;51.722;0.500;2022-09-09T04:26:15;11;11;
49462;PMS5003;35357;51.722;0.500;2022-09-09T04:28:42;11;9;
49462;PMS5003;35357;51.722;0.500;2022-09-09T04:31:11;12;12;
49462;PMS5003;35357;51.722;0.500;2022-09-09T04:33:42;10;10;
49462;PMS5003;35357;51.722;0.500;2022-09-09T04:36:09;13;12;
49462;PMS5003;35357;51.722;0.500;2022-09-09T04:38:36;11;11;
49462;PMS5003;35357;51.722;0.500;2022-09-09T04:41:03;9;9;
49462;PMS5003;35357;51.722;0.500;2022-09-09T04:43:31;14;14;
49462;PMS5003;35357;51.722;0.500;2022-09-09T04:45:58;17;15;
49462;PMS5003;35357;51.722;0.500;2022-09-09T04:48:25;15;13;
49462;PMS5003;35357;51.722;0.500;2022-09-09T04:50:54;14;14;
49462;PMS5003;35357;51.722;0.500;2022-09-09T04:53:23;15;15;
49462;PMS5003;35357;51.722;0.500;2022-09-09T04:55:50;17;16;
49462;PMS5003;35357;51.722;0.500;2022-09-09T04:58:18;16;15;
49462;PMS5003;35357;51.722;0.500;2022-09-09T05:00:46;16;16;
49462;PMS5003;35357;51.722;0.500;2022-09-09T05:03:13;13;13;
49462;PMS5003;35357;51.722;0.500;2022-09-09T05:05:40;13;13;
49462;PMS5003;35357;51.722;0.500;2022-09-09T05:08:07;19;18;
49462;PMS5003;35357;51.722;0.500;2022-09-09T05:10:36;14;13;
49462;PMS5003;35357;51.722;0.500;2022-09-09T05:13:04;19;16;
49462;PMS5003;35357;51.722;0.500;2022-09-09T05:15:31;16;16;
49462;PMS5003;35357;51.722;0.500;2022-09-09T05:17:59;17;16;
49462;PMS5003;35357;51.722;0.500;2022-09-09T05:20:28;15;15;
49462;PMS5003;35357;51.722;0.500;2022-09-09T05:22:55;20;18;
49462;PMS5003;35357;51.722;0.500;2022-09-09T05:25:23;14;13;
49462;PMS5003;35357;51.722;0.500;2022-09-09T05:27:51;13;12;
49462;PMS5003;35357;51.722;0.500;2022-09-09T05:30:18;17;17;
49462;PMS5003;35357;51.722;0.500;2022-09-09T05:32:45;20;20;
49462;PMS5003;35357;51.722;0.500;2022-09-09T05:35:12;19;19;
49462;PMS5003;35357;51.722;0.500;2022-09-09T05:37:39;20;18;
49462;PMS5003;35357;51.722;0.500;2022-09-09T05:40:07;19;18;
49462;PMS5003;35357;51.722;0.500;2022-09-09T05:42:35;21;20;
49462;PMS5003;35357;51.722;0.500;2022-09-09T05:45:02;18;16;
49462;PMS5003;35357;51.722;0.500;2022-09-09T05:47:30;23;21;
49462;PMS5003;35357;51.722;0.500;2022-09-09T05:49:58;21;20;
49462;PMS5003;35357;51.722;0.500;2022-09-09T05:52:25;20;19;
49462;PMS5003;35357;51.722;0.500;2022-09-09T05:54:52;24;21;
49462;PMS5003;35357;51.722;0.500;2022-09-09T05:57:19;22;21;
49462;PMS5003;35357;51.722;0.500;2022-09-09T05:59:46;21;21;
49462;PMS5003;35357;51.722;0.500;2022-09-09T06:02:14;20;19;
49462;PMS5003;35357;51.722;0.500;2022-09-09T06:04:40;22;20;
49462;PMS5003;35357;51.722;0.500;2022-09-09T06:07:07;20;19;
49462;PMS5003;35357;51.722;0.500;2022-09-09T06:09:35;25;22;
49462;PMS5003;35357;51.722;0.500;2022-09-09T06:12:02;24;22;
49462;PMS5003;35357;51.722;0.500;2022-09-09T06:14:29;24;23;
49462;PMS5003;35357;51.722;0.500;2022-09-09T06:16:56;18;18;
49462;PMS5003;35357;51.722;0.500;2022-09-09T06:19:23;21;20;
49462;PMS5003;35357;51.722;0.500;2022-09-09T06:21:50;21;21;
49462;PMS5003;35357;51.722;0.500;2022-09-09T06:24:17;21;20;
49462;PMS5003;35357;51.722;0.500;2022-09-09T06:26:43;23;23;
49462;PMS5003;35357;51.722;0.500;2022-09-09T06:29:11;23;22;
49462;PMS5003;35357;51.722;0.500;2022-09-09T06:31:38;22;19;
49462;PMS5003;35357;51.722;0.500;2022-09-09T06:34:06;22;20;
49462;PMS5003;35357;51.722;0.500;2022-09-09T06:36:35;22;22;
49462;PMS5003;35357;51.722;0.500;2022-09-09T06:39:04;26;24;
49462;PMS5003;35357;51.722;0.500;2022-09-09T06:41:32;21;21;
49462;PMS5003;35357;51.722;0.500;2022-09-09T06:43:59;18;17;
49462;PMS5003;35357;51.722;0.500;2022-09-09T06:46:28;22;21;
49462;PMS5003;35357;51.722;0.500;2022-09-09T06:48:56;20;18;
49462;PMS5003;35357;51.722;0.500;2022-09-09T06:51:24;25;25;
49462;PMS5003;35357;51.722;0.500;2022-09-09T06:53:53;22;22;
49462;PMS5003;35357;51.722;0.500;2022-09-09T06:56:22;23;22;
49462;PMS5003;35357;51.722;0.500;2022-09-09T06:58:52;27;26;
49462;PMS5003;35357;51.722;0.500;2022-09-09T07:01:20;28;25;
49462;PMS5003;35357;51.722;0.500;2022-09-09T07:03:49;24;23;
49462;PMS5003;35357;51.722;0.500;2022-09-09T07:06:18;20;19;
49462;PMS5003;35357;51.722;0.500;2022-09-09T07:08:50;19;18;
49462;PMS5003;35357;51.722;0.500;2022-09-09T07:11:19;28;26;
49462;PMS5003;35357;51.722;0.500;2022-09-09T07:13:48;21;20;
49462;PMS5003;35357;51.722;0.500;2022-09-09T07:16:17;22;21;
49462;PMS5003;35357;51.722;0.500;2022-09-09T07:18:45;23;22;
49462;PMS5003;35357;51.722;0.500;2022-09-09T07:21:14;38;36;
49462;PMS5003;35357;51.722;0.500;2022-09-09T07:23:41;38;37;
49462;PMS5003;35357;51.722;0.500;2022-09-09T07:26:09;47;45;
49462;PMS5003;35357;51.722;0.500;2022-09-09T07:28:37;62;61;
49462;PMS5003;35357;51.722;0.500;2022-09-09T07:31:05;64;64;
49462;PMS5003;35357;51.722;0.500;2022-09-09T07:33:33;79;77;
49462;PMS5003;35357;51.722;0.500;2022-09-09T07:36:03;77;73;
49462;PMS5003;35357;51.722;0.500;2022-09-09T07:38:33;73;68;
49462;PMS5003;35357;51.722;0.500;2022-09-09T07:41:05;50;49;
49462;PMS5003;35357;51.722;0.500;2022-09-09T07:43:34;34;32;
49462;PMS5003;35357;51.722;0.500;2022-09-09T07:46:01;39;38;
49462;PMS5003;35357;51.722;0.500;2022-09-09T07:48:28;47;42;
49462;PMS5003;35357;51.722;0.500;2022-09-09T07:51:03;38;37;
49462;PMS5003;35357;51.722;0.500;2022-09-09T07:53:31;34;34;
49462;PMS5003;35357;51.722;0.500;2022-09-09T07:56:02;33;31;
49462;PMS5003;35357;51.722;0.500;2022-09-09T07:58:30;22;22;
49462;PMS5003;35357;51.722;0.500;2022-09-09T08:00:57;22;21;
49462;PMS5003;35357;51.722;0.500;2022-09-09T08:03:24;15;15;
49462;PMS5003;35357;51.722;0.500;2022-09-09T08:05:51;16;16;
49462;PMS5003;35357;51.722;0.500;2022-09-09T08:08:19;14;14;
49462;PMS5003;35357;51.722;0.500;2022-09-09T08:10:46;13;13;
49462;PMS5003;35357;51.722;0.500;2022-09-09T08:13:13;10;10;
49462;PMS5003;35357;51.722;0.500;2022-09-09T08:15:41;13;12;
49462;PMS5003;35357;51.722;0.500;2022-09-09T08:18:08;15;14;
49462;PMS5003;35357;51.722;0.500;2022-09-09T08:20:36;12;12;
49462;PMS5003;35357;51.722;0.500;2022-09-09T08:23:03;13;13;
49462;PMS5003;35357;51.722;0.500;2022-09-09T08:25:30;14;14;
49462;PMS5003;35357;51.722;0.500;2022-09-09T08:27:58;12;11;
49462;PMS5003;35357;51.722;0.500;2022-09-09T08:30:24;14;14;
49462;PMS5003;35357;51.722;0.500;2022-09-09T08:32:51;15;14;
49462;PMS5003;35357;51.722;0.500;2022-09-09T08:35:19;16;16;
49462;PMS5003;35357;51.722;0.500;2022-09-09T08:37:46;15;15;
49462;PMS5003;35357;51.722;0.500;2022-09-09T08:40:16;15;15;
49462;PMS5003;35357;51.722;0.500;2022-09-09T08:42:49;17;16;
49462;PMS5003;35357;51.722;0.500;2022-09-09T08:45:24;15;14;
49462;PMS5003;35357;51.722;0.500;2022-09-09T08:48:00;15;13;
49462;PMS5003;35357;51.722;0.500;2022-09-09T08:50:37;17;16;
49462;PMS5003;35357;51.722;0.500;2022-09-09T08:53:09;14;14;
49462;PMS5003;35357;51.722;0.500;2022-09-09T08:55:41;17;17;
49462;PMS5003;35357;51.722;0.500;2022-09-09T08:58:13;16;15;
49462;PMS5003;35357;51.722;0.500;2022-09-09T09:00:46;12;12;
49462;PMS5003;35357;51.722;0.500;2022-09-09T09:03:25;14;13;
49462;PMS5003;35357;51.722;0.500;2022-09-09T09:06:01;14;13;
49462;PMS5003;35357;51.722;0.500;2022-09-09T09:08:39;17;17;
49462;PMS5003;35357;51.722;0.500;2022-09-09T09:11:13;15;14;
49462;PMS5003;35357;51.722;0.500;2022-09-09T09:13:42;15;15;
49462;PMS5003;35357;51.722;0.500;2022-09-09T09:16:16;13;13;
49462;PMS5003;35357;51.722;0.500;2022-09-09T09:18:49;15;14;
49462;PMS5003;35357;51.722;0.500;2022-09-09T09:21:19;13;13;
49462;PMS5003;35357;51.722;0.500;2022-09-09T09:23:56;12;11;
49462;PMS5003;35357;51.722;0.500;2022-09-09T09:26:27;17;15;
49462;PMS5003;35357;51.722;0.500;2022-09-09T09:28:59;11;11;
49462;PMS5003;35357;51.722;0.500;2022-09-09T09:31:34;11;10;
49462;PMS5003;35357;51.722;0.500;2022-09-09T09:34:01;12;12;
49462;PMS5003;35357;51.722;0.500;2022-09-09T09:36:33;12;12;
49462;PMS5003;35357;51.722;0.500;2022-09-09T09:39:04;14;14;
49462;PMS5003;35357;51.722;0.500;2022-09-09T09:41:32;11;11;
49462;PMS5003;35357;51.722;0.500;2022-09-09T09:44:01;13;13;
49462;PMS5003;35357;51.722;0.500;2022-09-09T09:46:30;11;11;
49462;PMS5003;35357;51.722;0.500;2022-09-09T09:48:59;14;14;
49462;PMS5003;35357;51.722;0.500;2022-09-09T09:51:27;15;13;
49462;PMS5003;35357;51.722;0.500;2022-09-09T09:54:08;11;10;
49462;PMS5003;35357;51.722;0.500;2022-09-09T09:56:41;11;11;
49462;PMS5003;35357;51.722;0.500;2022-09-09T09:59:19;11;10;
49462;PMS5003;35357;51.722;0.500;2022-09-09T10:01:48;9;9;
49462;PMS5003;35357;51.722;0.500;2022-09-09T10:04:16;13;11;
49462;PMS5003;35357;51.722;0.500;2022-09-09T10:06:44;13;11;
49462;PMS5003;35357;51.722;0.500;2022-09-09T10:09:21;13;12;
49462;PMS5003;35357;51.722;0.500;2022-09-09T10:11:52;9;9;
49462;PMS5003;35357;51.722;0.500;2022-09-09T10:14:28;11;11;
49462;PMS5003;35357;51.722;0.500;2022-09-09T10:17:06;12;10;
49462;PMS5003;35357;51.722;0.500;2022-09-09T10:19:42;8;8;
49462;PMS5003;35357;51.722;0.500;2022-09-09T10:22:25;7;7;
49462;PMS5003;35357;51.722;0.500;2022-09-09T10:25:13;5;5;
49462;PMS5003;35357;51.722;0.500;2022-09-09T10:28:06;7;7;
49462;PMS5003;35357;51.722;0.500;2022-09-09T10:30:46;9;9;
49462;PMS5003;35357;51.722;0.500;2022-09-09T10:33:21;13;13;
49462;PMS5003;35357;51.722;0.500;2022-09-09T10:35:58;15;13;
49462;PMS5003;35357;51.722;0.500;2022-09-09T10:38:37;11;10;
49462;PMS5003;35357;51.722;0.500;2022-09-09T10:41:11;12;12;
49462;PMS5003;35357;51.722;0.500;2022-09-09T10:43:55;11;9;
49462;PMS5003;35357;51.722;0.500;2022-09-09T10:46:41;14;13;
49462;PMS5003;35357;51.722;0.500;2022-09-09T10:49:21;11;11;
49462;PMS5003;35357;51.722;0.500;2022-09-09T10:52:03;11;10;
49462;PMS5003;35357;51.722;0.500;2022-09-09T10:54:44;9;8;
49462;PMS5003;35357;51.722;0.500;2022-09-09T10:57:25;6;6;
49462;PMS5003;35357;51.722;0.500;2022-09-09T10:59:58;9;9;
49462;PMS5003;35357;51.722;0.500;2022-09-09T11:02:30;10;8;
49462;PMS5003;35357;51.722;0.500;2022-09-09T11:04:59;9;9;
49462;PMS5003;35357;51.722;0.500;2022-09-09T11:07:33;11;10;
49462;PMS5003;35357;51.722;0.500;2022-09-09T11:10:05;11;10;
49462;PMS5003;35357;51.722;0.500;2022-09-09T11:12:45;12;11;
49462;PMS5003;35357;51.722;0.500;2022-09-09T11:15:17;14;12;
49462;PMS5003;35357;51.722;0.500;2022-09-09T11:17:52;13;12;
49462;PMS5003;35357;51.722;0.500;2022-09-09T11:20:23;11;11;
49462;PMS5003;35357;51.722;0.500;2022-09-09T11:22:52;9;9;
49462;PMS5003;35357;51.722;0.500;2022-09-09T11:25:25;8;8;
49462;PMS5003;35357;51.722;0.500;2022-09-09T11:28:01;7;7;
49462;PMS5003;35357;51.722;0.500;2022-09-09T11:30:45;8;8;
49462;PMS5003;35357;51.722;0.500;2022-09-09T11:33:51;9;9;
49462;PMS5003;35357;51.722;0.500;2022-09-09T11:36:40;11;11;
49462;PMS5003;35357;51.722;0.500;2022-09-09T11:39:28;9;9;
49462;PMS5003;35357;51.722;0.500;2022-09-09T11:42:12;10;9;
49462;PMS5003;35357;51.722;0.500;2022-09-09T11:44:50;8;8;
49462;PMS5003;35357;51.722;0.500;2022-09-09T11:47:20;12;11;
49462;PMS5003;35357;51.722;0.500;2022-09-09T11:49:51;10;10;
49462;PMS5003;35357;51.722;0.500;2022-09-09T11:52:20;9;8;
49462;PMS5003;35357;51.722;0.500;2022-09-09T11:54:49;9;9;
49462;PMS5003;35357;51.722;0.500;2022-09-09T11:57:22;9;9;
49462;PMS5003;35357;51.722;0.500;2022-09-09T11:59:52;10;10;
49462;PMS5003;35357;51.722;0.500;2022-09-09T12:02:21;10;10;
49462;PMS5003;35357;51.722;0.500;2022-09-09T12:04:54;13;12;
49462;PMS5003;35357;51.722;0.500;2022-09-09T12:07:28;12;12;
49462;PMS5003;35357;51.722;0.500;2022-09-09T12:10:01;11;11;
49462;PMS5003;35357;51.722;0.500;2022-09-09T12:12:32;11;11;
49462;PMS5003;35357;51.722;0.500;2022-09-09T12:15:18;13;13;
49462;PMS5003;35357;51.722;0.500;2022-09-09T12:17:50;12;12;
49462;PMS5003;35357;51.722;0.500;2022-09-09T12:20:19;14;14;
49462;PMS5003;35357;51.722;0.500;2022-09-09T12:22:52;14;13;
49462;PMS5003;35357;51.722;0.500;2022-09-09T12:25:31;13;12;
49462;PMS5003;35357;51.722;0.500;2022-09-09T12:28:05;13;12;
49462;PMS5003;35357;51.722;0.500;2022-09-09T12:30:40;12;12;
49462;PMS5003;35357;51.722;0.500;2022-09-09T12:33:16;11;10;
49462;PMS5003;35357;51.722;0.500;2022-09-09T12:35:45;13;13;
49462;PMS5003;35357;51.722;0.500;2022-09-09T12:38:20;12;12;
49462;PMS5003;35357;51.722;0.500;2022-09-09T12:40:57;11;11;
49462;PMS5003;35357;51.722;0.500;2022-09-09T12:43:25;13;13;
49462;PMS5003;35357;51.722;0.500;2022-09-09T12:45:54;14;13;
49462;PMS5003;35357;51.722;0.500;2022-09-09T12:48:27;11;11;
49462;PMS5003;35357;51.722;0.500;2022-09-09T12:51:00;12;12;
49462;PMS5003;35357;51.722;0.500;2022-09-09T12:53:29;11;9;
49462;PMS5003;35357;51.722;0.500;2022-09-09T12:56:00;11;11;
49462;PMS5003;35357;51.722;0.500;2022-09-09T12:58:29;13;11;
49462;PMS5003;35357;51.722;0.500;2022-09-09T13:00:57;11;10;
49462;PMS5003;35357;51.722;0.500;2022-09-09T13:03:25;12;11;
49462;PMS5003;35357;51.722;0.500;2022-09-09T13:05:57;14;14;
49462;PMS5003;35357;51.722;0.500;2022-09-09T13:08:36;9;9;
49462;PMS5003;35357;51.722;0.500;2022-09-09T13:11:04;10;10;
49462;PMS5003;35357;51.722;0.500;2022-09-09T13:13:37;11;11;
49462;PMS5003;35357;51.722;0.500;2022-09-09T13:16:06;8;8;
49462;PMS5003;35357;51.722;0.500;2022-09-09T13:18:46;6;6;
49462;PMS5003;35357;51.722;0.500;2022-09-09T13:21:13;7;7;
49462;PMS5003;35357;51.722;0.500;2022-09-09T13:23:40;7;7;
49462;PMS5003;35357;51.722;0.500;2022-09-09T13:26:20;7;7;
49462;PMS5003;35357;51.722;0.500;2022-09-09T13:28:49;9;8;
49462;PMS5003;35357;51.722;0.500;2022-09-09T13:31:19;6;6;
49462;PMS5003;35357;51.722;0.500;2022-09-09T13:33:48;6;6;
49462;PMS5003;35357;51.722;0.500;2022-09-09T13:36:16;6;6;
49462;PMS5003;35357;51.722;0.500;2022-09-09T13:38:55;5;5;
49462;PMS5003;35357;51.722;0.500;2022-09-09T13:41:24;7;7;
49462;PMS5003;35357;51.722;0.500;2022-09-09T13:43:54;8;8;
49462;PMS5003;35357;51.722;0.500;2022-09-09T13:46:26;8;8;
49462;PMS5003;35357;51.722;0.500;2022-09-09T13:49:00;7;7;
49462;PMS5003;35357;51.722;0.500;2022-09-09T13:51:30;8;8;
49462;PMS5003;35357;51.722;0.500;2022-09-09T13:54:00;11;11;
49462;PMS5003;35357;51.722;0.500;2022-09-09T13:56:28;10;10;
49462;PMS5003;35357;51.722;0.500;2022-09-09T13:58:55;13;13;
49462;PMS5003;35357;51.722;0.500;2022-09-09T14:01:22;13;13;
49462;PMS5003;35357;51.722;0.500;2022-09-09T14:03:49;13;13;
49462;PMS5003;35357;51.722;0.500;2022-09-09T14:06:16;13;11;
49462;PMS5003;35357;51.722;0.500;2022-09-09T14:08:43;16;14;
49462;PMS5003;35357;51.722;0.500;2022-09-09T14:11:11;15;14;
49462;PMS5003;35357;51.722;0.500;2022-09-09T14:13:39;13;13;
49462;PMS5003;35357;51.722;0.500;2022-09-09T14:16:07;14;14;
49462;PMS5003;35357;51.722;0.500;2022-09-09T14:18:34;13;12;
49462;PMS5003;35357;51.722;0.500;2022-09-09T14:21:01;16;15;
49462;PMS5003;35357;51.722;0.500;2022-09-09T14:23:29;15;12;
49462;PMS5003;35357;51.722;0.500;2022-09-09T14:25:57;13;13;
49462;PMS5003;35357;51.722;0.500;2022-09-09T14:28:24;14;12;
49462;PMS5003;35357;51.722;0.500;2022-09-09T14:30:51;16;15;
49462;PMS5003;35357;51.722;0.500;2022-09-09T14:33:18;12;11;
49462;PMS5003;35357;51.722;0.500;2022-09-09T14:35:45;13;13;
49462;PMS5003;35357;51.722;0.500;2022-09-09T14:38:12;14;14;
49462;PMS5003;35357;51.722;0.500;2022-09-09T14:40:39;14;12;
49462;PMS5003;35357;51.722;0.500;2022-09-09T14:43:06;12;11;
49462;PMS5003;35357;51.722;0.500;2022-09-09T14:45:37;9;9;
49462;PMS5003;35357;51.722;0.500;2022-09-09T14:48:04;16;16;
49462;PMS5003;35357;51.722;0.500;2022-09-09T14:50:31;15;14;
49462;PMS5003;35357;51.722;0.500;2022-09-09T14:52:59;13;12;
49462;PMS5003;35357;51.722;0.500;2022-09-09T14:55:26;13;12;
49462;PMS5003;35357;51.722;0.500;2022-09-09T14:57:54;13;13;
49462;PMS5003;35357;51.722;0.500;2022-09-09T15:00:20;13;13;
49462;PMS5003;35357;51.722;0.500;2022-09-09T15:02:47;14;12;
49462;PMS5003;35357;51.722;0.500;2022-09-09T15:05:18;14;14;
49462;PMS5003;35357;51.722;0.500;2022-09-09T15:07:45;16;16;
49462;PMS5003;35357;51.722;0.500;2022-09-09T15:10:12;13;13;
49462;PMS5003;35357;51.722;0.500;2022-09-09T15:12:40;13;12;
49462;PMS5003;35357;51.722;0.500;2022-09-09T15:15:07;12;12;
49462;PMS5003;35357;51.722;0.500;2022-09-09T15:17:34;11;11;
49462;PMS5003;35357;51.722;0.500;2022-09-09T15:20:01;11;11;
49462;PMS5003;35357;51.722;0.500;2022-09-09T15:22:29;8;8;
49462;PMS5003;35357;51.722;0.500;2022-09-09T15:24:56;11;10;
49462;PMS5003;35357;51.722;0.500;2022-09-09T15:27:24;9;8;
49462;PMS5003;35357;51.722;0.500;2022-09-09T15:29:51;8;8;
49462;PMS5003;35357;51.722;0.500;2022-09-09T15:32:19;10;10;
49462;PMS5003;35357;51.722;0.500;2022-09-09T15:34:45;9;9;
49462;PMS5003;35357;51.722;0.500;2022-09-09T15:37:12;10;10;
49462;PMS5003;35357;51.722;0.500;2022-09-09T15:39:39;12;12;
49462;PMS5003;35357;51.722;0.500;2022-09-09T15:42:07;10;9;
49462;PMS5003;35357;51.722;0.500;2022-09-09T15:44:42;10;10;
49462;PMS5003;35357;51.722;0.500;2022-09-09T15:47:10;10;10;
49462;PMS5003;35357;51.722;0.500;2022-09-09T15:49:38;12;11;
49462;PMS5003;35357;51.722;0.500;2022-09-09T15:52:06;10;9;
49462;PMS5003;35357;51.722;0.500;2022-09-09T15:54:35;8;8;
49462;PMS5003;35357;51.722;0.500;2022-09-09T15:57:04;8;8;
49462;PMS5003;35357;51.722;0.500;2022-09-09T15:59:32;6;6;
49462;PMS5003;35357;51.722;0.500;2022-09-09T16:02:00;8;8;
49462;PMS5003;35357;51.722;0.500;2022-09-09T16:04:27;6;6;
49462;PMS5003;35357;51.722;0.500;2022-09-09T16:06:55;5;5;
49462;PMS5003;35357;51.722;0.500;2022-09-09T16:09:25;6;6;
49462;PMS5003;35357;51.722;0.500;2022-09-09T16:11:55;7;6;
49462;PMS5003;35357;51.722;0.500;2022-09-09T16:14:23;6;6;
49462;PMS5003;35357;51.722;0.500;2022-09-09T16:16:50;8;8;
49462;PMS5003;35357;51.722;0.500;2022-09-09T16:19:17;8;8;
49462;PMS5003;35357;51.722;0.500;2022-09-09T16:21:45;6;6;
49462;PMS5003;35357;51.722;0.500;2022-09-09T16:24:15;7;7;
49462;PMS5003;35357;51.722;0.500;2022-09-09T16:26:45;7;6;
49462;PMS5003;35357;51.722;0.500;2022-09-09T16:29:14;7;7;
49462;PMS5003;35357;51.722;0.500;2022-09-09T16:31:42;9;9;
49462;PMS5003;35357;51.722;0.500;2022-09-09T16:34:10;7;7;
49462;PMS5003;35357;51.722;0.500;2022-09-09T16:36:38;8;8;
49462;PMS5003;35357;51.722;0.500;2022-09-09T16:39:07;8;8;
49462;PMS5003;35357;51.722;0.500;2022-09-09T16:41:36;7;6;
49462;PMS5003;35357;51.722;0.500;2022-09-09T16:44:06;9;8;
49462;PMS5003;35357;51.722;0.500;2022-09-09T16:46:34;9;8;
49462;PMS5003;35357;51.722;0.500;2022-09-09T16:49:04;8;8;
49462;PMS5003;35357;51.722;0.500;2022-09-09T16:51:34;11;10;
49462;PMS5003;35357;51.722;0.500;2022-09-09T16:54:04;7;7;